Yakutat, Alaska
Current Conditions -  °F | °C
As of 8:53 AM on Thursday 29 Jan 2015 (Local Time) from PAYA Reporting Station
Light Rain Light Rain  
Wind Chill: 26°   Ceiling: 2000
Heat Index: 32°   Visibility: 4mi
Dew Point: 31°   Wind: 6mph
Humidity: 96%   Direction: 90°E
Pressure: 30.03"   Gusts: NA
Location:  59.54°N, 139.73°W
Report Text: PAYA 291753Z 09005KT 4SM -RA BR OVC020 00/M01 A3003 RMK AO2 SLP170 RAB46 P0000 60001 T00001006 10000 20000 53018
Loading
Personal Weather Stations






























Interactive Weather Map New forecast layout! Learn more

10-Day Weather Forecast

Advertisements
Track Severe Weather on mobile